EFIVEFKI

Guest
Details From EFIV - Ivalo
To EFKI - Kajaani
Flight Number -
Tags generated
Created
Modified
Stats Distance 263 nm / 487 km
Max Altitude 28,500 ft / 8,687 m
Waypoints 5
Social Downloads 1
Likes 0
Share VATSIM

Download

Looking for another format? Having issues loading an existing format? Contact us
Advertisement - Login to hide

Notes

Basic altitude profile: - Ascent Rate: 2500ft/min - Ascent Speed: 250kts - Cruise Altitude: 35000ft - Cruise Speed: 420kts - Descent Rate: 1500ft/min - Descent Speed: 250kts Options: - Use NATs: yes - Use PACOTS: yes - Use low airways: yes - Use high airways: yes

Route

EFIV KNS T97 TISRU UT97 URUVI EFKI

ID Type Via Altitude Latitude Longitude Leg Dist Tot Dist Heading (true) Name
O EFIV APT - 0 ft / 0 m 68.60661˚ 27.41923˚ - 0 nm - Ivalo
KNS VOR - 3,200 ft / 975 m 68.45400˚ 27.45151˚ 9 nm 9 nm 176° / 176° KAUNIS VOR-DME
TISRU FIX T97 (AWY-LO) 28,500 ft / 8,687 m 67.07972˚ 27.06861˚ 82 nm 92 nm 186° / 186° -
URUVI FIX UT97 (AWY-HI) 28,500 ft / 8,687 m 65.96444˚ 26.78889˚ 67 nm 159 nm 186° / 186° -
O EFKI APT - 0 ft / 0 m 64.28547˚ 27.69242˚ 103 nm 262 nm 167° / 168° Kajaani

Altitude Profile

Advertisement - Login to hide

Weather


0- 5 10 15 20 25 30 35+ Temperature / ° C

Clouds and Precipitation
Forecast for 2017-12-17 18:00 UTC. Updated an hour ago

Ground ~20,000 ft ~40,000 ft Winds

EFIV

Details ICAO EFIV (IVL)
Name Ivalo
Region Finland
Timezone Europe/Helsinki (UTC+2.0)
Stats Elevation 481 ft / 147 m (AMSL)
Location 68.606615° 27.419231°
Runways 2
Magnetic Variation 13.129° E

METAR

EFIV 171420Z 23007KT 9999 OVC008 M10/M11 Q0999

Decode

TAF

Not found

Departure Runways

ID Width Length Bearing (true) Bearing (mag) Surface Threshold Offset Overrun Length
04 148 ft / 45 m 8,173 ft / 2,491 m 46.96° 33.83° Asphalt 0 ft / 0 m 721 ft / 220 m
08 148 ft / 45 m 2,616 ft / 797 m 92.19° 79.06° Asphalt 500 ft / 152 m 0 ft / 0 m
22 148 ft / 45 m 8,173 ft / 2,491 m 227.01° 213.88° Asphalt 0 ft / 0 m 209 ft / 64 m
26 148 ft / 45 m 2,616 ft / 797 m 272.21° 259.08° Asphalt 500 ft / 152 m 0 ft / 0 m

EFKI

Details ICAO EFKI (KAJ)
Name Kajaani
Region Finland
Timezone Europe/Helsinki (UTC+2.0)
Stats Elevation 483 ft / 147 m (AMSL)
Location 64.285471° 27.692417°
Runways 1
Magnetic Variation 11.475° E

METAR

EFKI 171420Z 22006KT 180V260 9999 BKN009 M04/M06 Q1005

Decode

TAF

Not found

Destination Runways

ID Width Length Bearing (true) Bearing (mag) Surface Threshold Offset Overrun Length
07 157 ft / 48 m 8,172 ft / 2,491 m 79.57° 68.09° Asphalt 0 ft / 0 m 0 ft / 0 m
25 157 ft / 48 m 8,172 ft / 2,491 m 259.61° 248.13° Asphalt 0 ft / 0 m 0 ft / 0 m

Approach Navaids

Runway Type Ident Frequency Range Bearing (true) Bearing (mag) Slope Elevation
07 Localiser KI 109.90 MHz 18 nm / 33 km 79.62° 68.15° - 483 ft / 147 m (AMSL)
07 Glidescope KI 109.90 MHz 10 nm / 19 km 79.59° 68.11° 3.00° 483 ft / 147 m (AMSL)
07 DME KI 109.90 MHz 18 nm / 33 km - - - 500 ft / 152 m (AMSL)